sensor_id;sensor_type;location;lat;lon;timestamp;noise_LAeq;noise_LA_min;noise_LA_max;noise_LA01;noise_LA95
69615;Laerm;56821;52.486;4.680;2022-09-09T00:00:01;36.45;33.71;39.02;;
69615;Laerm;56821;52.486;4.680;2022-09-09T00:00:12;37.07;34.77;39.91;;
69615;Laerm;56821;52.486;4.680;2022-09-09T00:00:23;37.32;35.05;39.25;;
69615;Laerm;56821;52.486;4.680;2022-09-09T00:00:34;39.17;34.61;41.78;;
69615;Laerm;56821;52.486;4.680;2022-09-09T00:00:49;38.41;35.18;41.51;;
69615;Laerm;56821;52.486;4.680;2022-09-09T00:02:08;38.57;35.03;41.50;;
69615;Laerm;56821;52.486;4.680;2022-09-09T00:02:23;37.61;35.09;40.35;;
69615;Laerm;56821;52.486;4.680;2022-09-09T00:02:35;36.99;34.69;39.19;;
69615;Laerm;56821;52.486;4.680;2022-09-09T00:03:19;36.93;33.95;39.60;;
69615;Laerm;56821;52.486;4.680;2022-09-09T00:03:31;37.82;34.79;43.46;;
69615;Laerm;56821;52.486;4.680;2022-09-09T00:03:53;39.19;36.59;41.50;;
69615;Laerm;56821;52.486;4.680;2022-09-09T00:04:21;38.40;36.05;40.93;;
69615;Laerm;56821;52.486;4.680;2022-09-09T00:04:36;39.71;36.28;51.60;;
69615;Laerm;56821;52.486;4.680;2022-09-09T00:04:51;37.98;34.63;40.94;;
69615;Laerm;56821;52.486;4.680;2022-09-09T00:05:13;37.21;34.47;40.08;;
69615;Laerm;56821;52.486;4.680;2022-09-09T00:06:03;44.18;35.57;66.58;;
69615;Laerm;56821;52.486;4.680;2022-09-09T00:06:21;39.08;36.21;43.98;;
69615;Laerm;56821;52.486;4.680;2022-09-09T00:06:54;39.32;36.75;43.47;;
69615;Laerm;56821;52.486;4.680;2022-09-09T00:07:46;40.50;37.18;43.93;;
69615;Laerm;56821;52.486;4.680;2022-09-09T00:07:58;39.94;36.30;44.80;;
69615;Laerm;56821;52.486;4.680;2022-09-09T00:08:15;38.38;35.85;42.51;;
69615;Laerm;56821;52.486;4.680;2022-09-09T00:08:38;39.09;35.70;46.50;;
69615;Laerm;56821;52.486;4.680;2022-09-09T00:08:57;41.24;37.56;44.84;;
69615;Laerm;56821;52.486;4.680;2022-09-09T00:09:17;38.50;35.95;41.22;;
69615;Laerm;56821;52.486;4.680;2022-09-09T00:09:28;38.18;35.41;41.49;;
69615;Laerm;56821;52.486;4.680;2022-09-09T00:09:40;38.17;35.93;41.11;;
69615;Laerm;56821;52.486;4.680;2022-09-09T00:10:32;38.94;35.64;43.01;;
69615;Laerm;56821;52.486;4.680;2022-09-09T00:10:43;38.76;36.42;42.21;;
69615;Laerm;56821;52.486;4.680;2022-09-09T00:10:58;38.24;36.02;40.72;;
69615;Laerm;56821;52.486;4.680;2022-09-09T00:11:09;37.98;35.77;40.16;;
69615;Laerm;56821;52.486;4.680;2022-09-09T00:11:30;38.71;35.85;41.34;;
69615;Laerm;56821;52.486;4.680;2022-09-09T00:11:54;38.07;35.01;41.18;;
69615;Laerm;56821;52.486;4.680;2022-09-09T00:13:28;41.66;38.61;47.42;;
69615;Laerm;56821;52.486;4.680;2022-09-09T00:13:39;41.09;37.78;57.43;;
69615;Laerm;56821;52.486;4.680;2022-09-09T00:13:52;39.31;37.28;42.72;;
69615;Laerm;56821;52.486;4.680;2022-09-09T00:14:05;40.70;38.82;42.83;;
69615;Laerm;56821;52.486;4.680;2022-09-09T00:14:48;39.04;36.23;42.11;;
69615;Laerm;56821;52.486;4.680;2022-09-09T00:15:05;39.14;36.75;43.01;;
69615;Laerm;56821;52.486;4.680;2022-09-09T00:15:21;40.66;37.84;43.05;;
69615;Laerm;56821;52.486;4.680;2022-09-09T00:15:47;39.64;37.35;41.62;;
69615;Laerm;56821;52.486;4.680;2022-09-09T00:16:14;38.62;35.35;41.19;;
69615;Laerm;56821;52.486;4.680;2022-09-09T00:16:27;38.82;35.98;42.17;;
69615;Laerm;56821;52.486;4.680;2022-09-09T00:16:38;41.64;38.45;44.28;;
69615;Laerm;56821;52.486;4.680;2022-09-09T00:16:54;42.51;39.42;45.37;;
69615;Laerm;56821;52.486;4.680;2022-09-09T00:17:09;40.03;36.56;42.42;;
69615;Laerm;56821;52.486;4.680;2022-09-09T00:17:53;38.81;36.53;41.85;;
69615;Laerm;56821;52.486;4.680;2022-09-09T00:19:07;41.12;39.13;42.93;;
69615;Laerm;56821;52.486;4.680;2022-09-09T00:19:24;40.17;36.04;45.09;;
69615;Laerm;56821;52.486;4.680;2022-09-09T00:19:41;38.55;36.38;40.92;;
69615;Laerm;56821;52.486;4.680;2022-09-09T00:21:16;38.89;36.49;41.21;;
69615;Laerm;56821;52.486;4.680;2022-09-09T00:21:30;38.97;37.20;41.26;;
69615;Laerm;56821;52.486;4.680;2022-09-09T00:22:23;37.98;35.18;43.62;;
69615;Laerm;56821;52.486;4.680;2022-09-09T00:22:36;38.36;35.92;40.40;;
69615;Laerm;56821;52.486;4.680;2022-09-09T00:22:57;38.78;36.34;41.08;;
69615;Laerm;56821;52.486;4.680;2022-09-09T00:23:12;40.31;36.59;46.62;;
69615;Laerm;56821;52.486;4.680;2022-09-09T00:23:39;39.50;36.85;42.81;;
69615;Laerm;56821;52.486;4.680;2022-09-09T00:23:55;42.00;38.04;49.17;;
69615;Laerm;56821;52.486;4.680;2022-09-09T00:24:52;39.45;36.89;43.88;;
69615;Laerm;56821;52.486;4.680;2022-09-09T00:25:10;39.03;36.62;42.40;;
69615;Laerm;56821;52.486;4.680;2022-09-09T00:25:26;40.57;38.28;42.30;;
69615;Laerm;56821;52.486;4.680;2022-09-09T00:26:47;38.83;35.67;42.39;;
69615;Laerm;56821;52.486;4.680;2022-09-09T00:26:53;38.76;36.02;41.96;;
69615;Laerm;56821;52.486;4.680;2022-09-09T00:27:01;38.19;35.74;42.40;;
69615;Laerm;56821;52.486;4.680;2022-09-09T00:28:07;38.86;36.73;41.97;;
69615;Laerm;56821;52.486;4.680;2022-09-09T00:28:13;39.08;36.39;42.65;;
69615;Laerm;56821;52.486;4.680;2022-09-09T00:28:27;39.10;35.65;41.56;;
69615;Laerm;56821;52.486;4.680;2022-09-09T00:29:00;38.92;36.27;42.13;;
69615;Laerm;56821;52.486;4.680;2022-09-09T00:29:31;39.12;35.96;43.18;;
69615;Laerm;56821;52.486;4.680;2022-09-09T00:29:47;38.54;36.09;43.43;;
69615;Laerm;56821;52.486;4.680;2022-09-09T00:30:01;38.90;36.87;41.10;;
69615;Laerm;56821;52.486;4.680;2022-09-09T00:30:16;38.47;36.25;40.54;;
69615;Laerm;56821;52.486;4.680;2022-09-09T00:30:31;39.38;37.01;42.31;;
69615;Laerm;56821;52.486;4.680;2022-09-09T00:30:44;39.70;37.01;42.89;;
69615;Laerm;56821;52.486;4.680;2022-09-09T00:30:56;40.53;36.87;43.28;;
69615;Laerm;56821;52.486;4.680;2022-09-09T00:31:14;41.43;38.72;45.04;;
69615;Laerm;56821;52.486;4.680;2022-09-09T00:31:27;39.57;36.77;42.66;;
69615;Laerm;56821;52.486;4.680;2022-09-09T00:31:38;39.45;36.83;42.68;;
69615;Laerm;56821;52.486;4.680;2022-09-09T00:31:49;38.18;35.02;41.18;;
69615;Laerm;56821;52.486;4.680;2022-09-09T00:32:00;39.43;36.82;42.58;;
69615;Laerm;56821;52.486;4.680;2022-09-09T00:32:18;39.63;36.12;42.13;;
69615;Laerm;56821;52.486;4.680;2022-09-09T00:32:29;39.28;36.52;43.55;;
69615;Laerm;56821;52.486;4.680;2022-09-09T00:32:40;38.29;35.87;41.66;;
69615;Laerm;56821;52.486;4.680;2022-09-09T00:32:54;38.22;35.50;40.92;;
69615;Laerm;56821;52.486;4.680;2022-09-09T00:33:11;38.50;36.05;41.56;;
69615;Laerm;56821;52.486;4.680;2022-09-09T00:33:24;38.57;36.14;40.98;;
69615;Laerm;56821;52.486;4.680;2022-09-09T00:33:36;38.20;35.96;41.00;;
69615;Laerm;56821;52.486;4.680;2022-09-09T00:33:48;38.64;36.40;41.03;;
69615;Laerm;56821;52.486;4.680;2022-09-09T00:34:03;39.26;35.92;42.78;;
69615;Laerm;56821;52.486;4.680;2022-09-09T00:34:22;39.27;36.47;44.03;;
69615;Laerm;56821;52.486;4.680;2022-09-09T00:34:34;38.95;36.78;41.11;;
69615;Laerm;56821;52.486;4.680;2022-09-09T00:34:51;39.81;37.85;41.76;;
69615;Laerm;56821;52.486;4.680;2022-09-09T00:35:04;42.03;38.28;46.04;;
69615;Laerm;56821;52.486;4.680;2022-09-09T00:35:23;39.30;36.88;41.80;;
69615;Laerm;56821;52.486;4.680;2022-09-09T00:35:44;38.97;35.97;42.05;;
69615;Laerm;56821;52.486;4.680;2022-09-09T00:35:55;39.21;36.32;43.69;;
69615;Laerm;56821;52.486;4.680;2022-09-09T00:36:09;38.14;35.77;40.57;;
69615;Laerm;56821;52.486;4.680;2022-09-09T00:36:23;38.45;36.09;41.56;;
69615;Laerm;56821;52.486;4.680;2022-09-09T00:36:36;38.23;35.60;41.13;;
69615;Laerm;56821;52.486;4.680;2022-09-09T00:36:48;38.32;35.58;41.08;;
69615;Laerm;56821;52.486;4.680;2022-09-09T00:36:59;37.95;35.34;40.65;;
69615;Laerm;56821;52.486;4.680;2022-09-09T00:37:09;37.50;35.24;39.86;;
69615;Laerm;56821;52.486;4.680;2022-09-09T00:37:20;38.49;36.50;40.76;;
69615;Laerm;56821;52.486;4.680;2022-09-09T00:37:31;38.41;36.12;40.90;;
69615;Laerm;56821;52.486;4.680;2022-09-09T00:37:42;38.49;36.24;41.08;;
69615;Laerm;56821;52.486;4.680;2022-09-09T00:37:53;38.19;36.05;40.74;;
69615;Laerm;56821;52.486;4.680;2022-09-09T00:38:08;38.49;35.95;40.91;;
69615;Laerm;56821;52.486;4.680;2022-09-09T00:38:23;37.85;34.99;40.81;;
69615;Laerm;56821;52.486;4.680;2022-09-09T00:38:36;36.61;34.77;38.37;;
69615;Laerm;56821;52.486;4.680;2022-09-09T00:38:57;36.94;34.55;38.78;;
69615;Laerm;56821;52.486;4.680;2022-09-09T00:39:10;38.80;35.61;43.90;;
69615;Laerm;56821;52.486;4.680;2022-09-09T00:39:39;41.07;36.43;45.27;;
69615;Laerm;56821;52.486;4.680;2022-09-09T00:39:51;39.43;35.86;45.14;;
69615;Laerm;56821;52.486;4.680;2022-09-09T00:40:08;38.25;36.13;40.87;;
69615;Laerm;56821;52.486;4.680;2022-09-09T00:40:29;37.68;35.31;41.19;;
69615;Laerm;56821;52.486;4.680;2022-09-09T00:41:28;38.53;35.29;41.79;;
69615;Laerm;56821;52.486;4.680;2022-09-09T00:42:03;40.08;36.79;51.75;;
69615;Laerm;56821;52.486;4.680;2022-09-09T00:42:37;38.56;36.14;43.04;;
69615;Laerm;56821;52.486;4.680;2022-09-09T00:42:43;38.05;34.97;40.68;;
69615;Laerm;56821;52.486;4.680;2022-09-09T00:43:05;37.78;35.86;43.20;;
69615;Laerm;56821;52.486;4.680;2022-09-09T00:43:25;39.64;35.73;50.57;;
69615;Laerm;56821;52.486;4.680;2022-09-09T00:43:36;38.76;35.66;41.71;;
69615;Laerm;56821;52.486;4.680;2022-09-09T00:43:52;37.36;35.33;39.86;;
69615;Laerm;56821;52.486;4.680;2022-09-09T00:44:17;39.31;35.93;41.80;;
69615;Laerm;56821;52.486;4.680;2022-09-09T00:44:34;40.93;37.67;49.32;;
69615;Laerm;56821;52.486;4.680;2022-09-09T00:45:29;41.88;38.90;44.24;;
69615;Laerm;56821;52.486;4.680;2022-09-09T00:45:40;39.31;36.65;48.93;;
69615;Laerm;56821;52.486;4.680;2022-09-09T00:46:08;37.53;34.84;39.90;;
69615;Laerm;56821;52.486;4.680;2022-09-09T00:47:53;41.69;35.44;47.12;;
69615;Laerm;56821;52.486;4.680;2022-09-09T00:48:05;39.57;35.27;45.89;;
69615;Laerm;56821;52.486;4.680;2022-09-09T00:48:20;36.89;34.37;39.10;;
69615;Laerm;56821;52.486;4.680;2022-09-09T00:48:45;37.90;34.92;47.08;;
69615;Laerm;56821;52.486;4.680;2022-09-09T00:49:39;39.62;36.70;43.03;;
69615;Laerm;56821;52.486;4.680;2022-09-09T00:50:02;39.45;35.86;43.53;;
69615;Laerm;56821;52.486;4.680;2022-09-09T00:50:20;39.15;35.47;42.30;;
69615;Laerm;56821;52.486;4.680;2022-09-09T00:50:38;38.31;35.54;42.56;;
69615;Laerm;56821;52.486;4.680;2022-09-09T00:50:55;37.49;34.68;40.45;;
69615;Laerm;56821;52.486;4.680;2022-09-09T00:51:12;36.91;34.44;38.90;;
69615;Laerm;56821;52.486;4.680;2022-09-09T00:53:22;40.25;36.63;43.58;;
69615;Laerm;56821;52.486;4.680;2022-09-09T00:54:26;36.55;33.58;43.68;;
69615;Laerm;56821;52.486;4.680;2022-09-09T00:55:03;36.68;34.16;40.04;;
69615;Laerm;56821;52.486;4.680;2022-09-09T00:55:31;36.79;34.71;38.94;;
69615;Laerm;56821;52.486;4.680;2022-09-09T00:56:46;37.22;33.88;39.78;;
69615;Laerm;56821;52.486;4.680;2022-09-09T00:57:16;36.60;34.70;38.73;;
69615;Laerm;56821;52.486;4.680;2022-09-09T00:57:32;37.17;34.55;41.43;;
69615;Laerm;56821;52.486;4.680;2022-09-09T00:57:43;38.38;35.38;42.33;;
69615;Laerm;56821;52.486;4.680;2022-09-09T00:57:56;39.57;37.75;41.79;;
69615;Laerm;56821;52.486;4.680;2022-09-09T00:58:07;41.41;37.70;45.00;;
69615;Laerm;56821;52.486;4.680;2022-09-09T00:58:18;39.70;37.66;42.40;;
69615;Laerm;56821;52.486;4.680;2022-09-09T00:58:28;39.01;37.17;41.34;;
69615;Laerm;56821;52.486;4.680;2022-09-09T00:58:39;38.55;35.80;41.46;;
69615;Laerm;56821;52.486;4.680;2022-09-09T00:59:01;38.13;35.68;40.60;;
69615;Laerm;56821;52.486;4.680;2022-09-09T00:59:22;37.41;35.23;40.39;;
69615;Laerm;56821;52.486;4.680;2022-09-09T00:59:56;39.68;36.87;43.47;;
69615;Laerm;56821;52.486;4.680;2022-09-09T01:00:31;37.04;34.81;39.17;;
69615;Laerm;56821;52.486;4.680;2022-09-09T01:00:52;36.78;34.63;39.03;;
69615;Laerm;56821;52.486;4.680;2022-09-09T01:01:11;36.31;34.15;38.57;;
69615;Laerm;56821;52.486;4.680;2022-09-09T01:01:22;35.50;33.56;37.56;;
69615;Laerm;56821;52.486;4.680;2022-09-09T01:01:32;36.75;34.57;39.37;;
69615;Laerm;56821;52.486;4.680;2022-09-09T01:01:42;37.14;34.81;40.49;;
69615;Laerm;56821;52.486;4.680;2022-09-09T01:01:52;39.38;35.94;43.00;;
69615;Laerm;56821;52.486;4.680;2022-09-09T01:02:09;37.80;35.87;40.03;;
69615;Laerm;56821;52.486;4.680;2022-09-09T01:02:27;36.74;34.57;38.96;;
69615;Laerm;56821;52.486;4.680;2022-09-09T01:02:45;37.71;34.77;40.63;;
69615;Laerm;56821;52.486;4.680;2022-09-09T01:03:06;38.83;36.31;42.02;;
69615;Laerm;56821;52.486;4.680;2022-09-09T01:04:00;36.26;33.75;39.19;;
69615;Laerm;56821;52.486;4.680;2022-09-09T01:04:16;36.56;34.42;39.04;;
69615;Laerm;56821;52.486;4.680;2022-09-09T01:04:32;36.68;33.88;38.88;;
69615;Laerm;56821;52.486;4.680;2022-09-09T01:04:44;36.27;33.98;38.42;;
69615;Laerm;56821;52.486;4.680;2022-09-09T01:04:56;35.80;33.04;38.47;;
69615;Laerm;56821;52.486;4.680;2022-09-09T01:05:13;35.92;33.53;38.41;;
69615;Laerm;56821;52.486;4.680;2022-09-09T01:05:43;36.44;34.04;39.35;;
69615;Laerm;56821;52.486;4.680;2022-09-09T01:06:37;38.96;35.81;45.65;;
69615;Laerm;56821;52.486;4.680;2022-09-09T01:06:49;41.74;39.00;44.89;;
69615;Laerm;56821;52.486;4.680;2022-09-09T01:07:09;39.45;36.66;42.24;;
69615;Laerm;56821;52.486;4.680;2022-09-09T01:07:24;37.20;34.69;39.89;;
69615;Laerm;56821;52.486;4.680;2022-09-09T01:07:35;37.06;34.82;40.19;;
69615;Laerm;56821;52.486;4.680;2022-09-09T01:07:47;37.90;36.07;40.35;;
69615;Laerm;56821;52.486;4.680;2022-09-09T01:08:00;38.60;36.16;41.34;;
69615;Laerm;56821;52.486;4.680;2022-09-09T01:08:27;40.19;37.52;43.02;;
69615;Laerm;56821;52.486;4.680;2022-09-09T01:08:58;39.11;35.48;42.37;;
69615;Laerm;56821;52.486;4.680;2022-09-09T01:09:22;37.24;35.01;39.67;;
69615;Laerm;56821;52.486;4.680;2022-09-09T01:10:07;37.61;34.86;40.09;;
69615;Laerm;56821;52.486;4.680;2022-09-09T01:10:52;36.60;33.81;45.10;;
69615;Laerm;56821;52.486;4.680;2022-09-09T01:11:03;36.19;34.12;38.28;;
69615;Laerm;56821;52.486;4.680;2022-09-09T01:11:21;36.02;33.96;37.99;;
69615;Laerm;56821;52.486;4.680;2022-09-09T01:12:02;35.90;33.24;43.11;;
69615;Laerm;56821;52.486;4.680;2022-09-09T01:12:24;35.96;33.54;38.48;;
69615;Laerm;56821;52.486;4.680;2022-09-09T01:12:38;36.48;34.30;38.82;;
69615;Laerm;56821;52.486;4.680;2022-09-09T01:12:49;35.96;33.66;37.84;;
69615;Laerm;56821;52.486;4.680;2022-09-09T01:13:02;36.07;33.72;38.82;;
69615;Laerm;56821;52.486;4.680;2022-09-09T01:13:19;35.87;33.73;37.94;;
69615;Laerm;56821;52.486;4.680;2022-09-09T01:13:33;36.36;34.36;38.47;;
69615;Laerm;56821;52.486;4.680;2022-09-09T01:13:44;35.65;33.89;37.92;;
69615;Laerm;56821;52.486;4.680;2022-09-09T01:14:00;37.75;34.87;49.45;;
69615;Laerm;56821;52.486;4.680;2022-09-09T01:15:14;35.63;32.52;42.22;;
69615;Laerm;56821;52.486;4.680;2022-09-09T01:15:28;35.43;32.95;37.97;;
69615;Laerm;56821;52.486;4.680;2022-09-09T01:15:40;35.80;33.28;38.61;;
69615;Laerm;56821;52.486;4.680;2022-09-09T01:15:53;35.79;33.12;39.25;;
69615;Laerm;56821;52.486;4.680;2022-09-09T01:16:04;36.16;33.73;38.29;;
69615;Laerm;56821;52.486;4.680;2022-09-09T01:16:15;37.99;35.15;40.05;;
69615;Laerm;56821;52.486;4.680;2022-09-09T01:16:26;38.52;35.18;41.84;;
69615;Laerm;56821;52.486;4.680;2022-09-09T01:16:39;36.39;34.70;39.65;;
69615;Laerm;56821;52.486;4.680;2022-09-09T01:16:52;35.83;33.85;38.32;;
69615;Laerm;56821;52.486;4.680;2022-09-09T01:17:46;35.32;33.31;38.12;;
69615;Laerm;56821;52.486;4.680;2022-09-09T01:18:12;36.00;33.69;39.31;;
69615;Laerm;56821;52.486;4.680;2022-09-09T01:18:25;35.17;32.69;39.60;;
69615;Laerm;56821;52.486;4.680;2022-09-09T01:18:41;37.95;35.16;40.48;;
69615;Laerm;56821;52.486;4.680;2022-09-09T01:18:54;36.15;33.79;38.64;;
69615;Laerm;56821;52.486;4.680;2022-09-09T01:19:04;36.20;34.16;38.31;;
69615;Laerm;56821;52.486;4.680;2022-09-09T01:19:20;35.18;33.55;37.59;;
69615;Laerm;56821;52.486;4.680;2022-09-09T01:21:00;37.55;34.91;41.96;;
69615;Laerm;56821;52.486;4.680;2022-09-09T01:21:57;36.01;33.69;42.08;;
69615;Laerm;56821;52.486;4.680;2022-09-09T01:22:19;36.93;34.66;39.84;;
69615;Laerm;56821;52.486;4.680;2022-09-09T01:22:49;38.17;35.10;40.82;;
69615;Laerm;56821;52.486;4.680;2022-09-09T01:26:10;35.17;32.78;38.51;;
69615;Laerm;56821;52.486;4.680;2022-09-09T01:26:26;35.78;34.01;38.08;;
69615;Laerm;56821;52.486;4.680;2022-09-09T01:26:43;35.61;33.69;37.30;;
69615;Laerm;56821;52.486;4.680;2022-09-09T01:26:58;35.38;33.18;38.05;;
69615;Laerm;56821;52.486;4.680;2022-09-09T01:27:10;35.07;33.12;37.86;;
69615;Laerm;56821;52.486;4.680;2022-09-09T01:27:22;36.16;33.14;38.40;;
69615;Laerm;56821;52.486;4.680;2022-09-09T01:27:33;35.91;34.05;37.79;;
69615;Laerm;56821;52.486;4.680;2022-09-09T01:27:44;36.51;33.71;39.00;;
69615;Laerm;56821;52.486;4.680;2022-09-09T01:27:58;36.93;34.68;39.08;;
69615;Laerm;56821;52.486;4.680;2022-09-09T01:28:13;35.99;33.51;37.51;;
69615;Laerm;56821;52.486;4.680;2022-09-09T01:28:26;35.24;33.27;37.24;;
69615;Laerm;56821;52.486;4.680;2022-09-09T01:28:38;35.67;33.59;41.69;;
69615;Laerm;56821;52.486;4.680;2022-09-09T01:28:49;36.74;34.53;41.50;;
69615;Laerm;56821;52.486;4.680;2022-09-09T01:29:02;36.95;34.55;41.69;;
69615;Laerm;56821;52.486;4.680;2022-09-09T01:29:17;36.69;34.43;39.72;;
69615;Laerm;56821;52.486;4.680;2022-09-09T01:29:28;38.04;35.38;40.98;;
69615;Laerm;56821;52.486;4.680;2022-09-09T01:29:38;37.34;35.07;40.30;;
69615;Laerm;56821;52.486;4.680;2022-09-09T01:29:49;36.92;34.94;38.66;;
69615;Laerm;56821;52.486;4.680;2022-09-09T01:29:59;38.43;36.22;40.19;;
69615;Laerm;56821;52.486;4.680;2022-09-09T01:30:10;38.40;36.47;40.25;;
69615;Laerm;56821;52.486;4.680;2022-09-09T01:30:21;38.50;36.41;41.09;;
69615;Laerm;56821;52.486;4.680;2022-09-09T01:30:32;36.97;34.46;42.57;;
69615;Laerm;56821;52.486;4.680;2022-09-09T01:30:43;36.70;33.77;42.52;;
69615;Laerm;56821;52.486;4.680;2022-09-09T01:30:53;38.60;34.83;45.33;;
69615;Laerm;56821;52.486;4.680;2022-09-09T01:31:05;38.11;34.03;45.92;;
69615;Laerm;56821;52.486;4.680;2022-09-09T01:31:25;36.39;34.03;38.94;;
69615;Laerm;56821;52.486;4.680;2022-09-09T01:31:56;37.23;34.39;42.94;;
69615;Laerm;56821;52.486;4.680;2022-09-09T01:32:56;36.90;34.44;42.31;;
69615;Laerm;56821;52.486;4.680;2022-09-09T01:33:15;38.95;36.59;41.52;;
69615;Laerm;56821;52.486;4.680;2022-09-09T01:33:26;42.40;38.05;47.83;;
69615;Laerm;56821;52.486;4.680;2022-09-09T01:33:37;39.05;36.29;43.30;;
69615;Laerm;56821;52.486;4.680;2022-09-09T01:33:47;38.44;35.74;41.28;;
69615;Laerm;56821;52.486;4.680;2022-09-09T01:33:57;37.15;33.74;39.77;;
69615;Laerm;56821;52.486;4.680;2022-09-09T01:34:09;36.17;34.31;38.23;;
69615;Laerm;56821;52.486;4.680;2022-09-09T01:34:20;36.45;34.30;39.55;;
69615;Laerm;56821;52.486;4.680;2022-09-09T01:34:31;35.85;33.22;37.61;;
69615;Laerm;56821;52.486;4.680;2022-09-09T01:34:43;34.87;33.07;37.58;;
69615;Laerm;56821;52.486;4.680;2022-09-09T01:34:53;35.65;34.26;37.44;;
69615;Laerm;56821;52.486;4.680;2022-09-09T01:35:04;35.97;34.23;38.13;;
69615;Laerm;56821;52.486;4.680;2022-09-09T01:35:50;34.97;32.33;44.13;;
69615;Laerm;56821;52.486;4.680;2022-09-09T01:36:08;35.64;33.59;39.61;;
69615;Laerm;56821;52.486;4.680;2022-09-09T01:36:23;36.81;34.49;40.13;;
69615;Laerm;56821;52.486;4.680;2022-09-09T01:36:37;36.47;34.30;39.52;;
69615;Laerm;56821;52.486;4.680;2022-09-09T01:36:59;37.28;35.23;39.97;;
69615;Laerm;56821;52.486;4.680;2022-09-09T01:37:12;36.24;33.84;38.48;;
69615;Laerm;56821;52.486;4.680;2022-09-09T01:37:22;36.08;33.36;39.38;;
69615;Laerm;56821;52.486;4.680;2022-09-09T01:37:32;37.41;35.28;39.67;;
69615;Laerm;56821;52.486;4.680;2022-09-09T01:37:43;37.53;35.30;39.62;;
69615;Laerm;56821;52.486;4.680;2022-09-09T01:37:53;38.43;35.96;41.17;;
69615;Laerm;56821;52.486;4.680;2022-09-09T01:38:03;38.27;35.38;40.68;;
69615;Laerm;56821;52.486;4.680;2022-09-09T01:38:14;40.96;38.19;43.87;;
69615;Laerm;56821;52.486;4.680;2022-09-09T01:38:25;41.69;37.20;44.64;;
69615;Laerm;56821;52.486;4.680;2022-09-09T01:38:35;39.74;37.15;45.19;;
69615;Laerm;56821;52.486;4.680;2022-09-09T01:38:46;37.85;35.15;41.03;;
69615;Laerm;56821;52.486;4.680;2022-09-09T01:38:56;37.73;35.25;40.76;;
69615;Laerm;56821;52.486;4.680;2022-09-09T01:39:07;36.98;35.21;40.66;;
69615;Laerm;56821;52.486;4.680;2022-09-09T01:39:17;38.64;36.18;40.10;;
69615;Laerm;56821;52.486;4.680;2022-09-09T01:39:27;37.56;34.94;40.45;;
69615;Laerm;56821;52.486;4.680;2022-09-09T01:39:38;36.32;34.23;38.35;;
69615;Laerm;56821;52.486;4.680;2022-09-09T01:39:50;35.83;33.19;38.05;;
69615;Laerm;56821;52.486;4.680;2022-09-09T01:40:00;36.11;34.56;38.07;;
69615;Laerm;56821;52.486;4.680;2022-09-09T01:40:10;37.22;34.96;39.19;;
69615;Laerm;56821;52.486;4.680;2022-09-09T01:40:21;38.21;35.26;40.08;;
69615;Laerm;56821;52.486;4.680;2022-09-09T01:40:31;36.73;34.80;39.54;;
69615;Laerm;56821;52.486;4.680;2022-09-09T01:40:42;38.09;35.62;40.82;;
69615;Laerm;56821;52.486;4.680;2022-09-09T01:40:52;36.03;33.97;38.76;;
69615;Laerm;56821;52.486;4.680;2022-09-09T01:41:03;36.20;34.40;39.08;;
69615;Laerm;56821;52.486;4.680;2022-09-09T01:41:13;35.27;33.31;37.98;;
69615;Laerm;56821;52.486;4.680;2022-09-09T01:41:24;38.27;34.42;40.64;;
69615;Laerm;56821;52.486;4.680;2022-09-09T01:41:34;35.74;33.54;38.95;;
69615;Laerm;56821;52.486;4.680;2022-09-09T01:41:44;34.77;32.92;37.05;;
69615;Laerm;56821;52.486;4.680;2022-09-09T01:41:54;36.43;34.18;40.01;;
69615;Laerm;56821;52.486;4.680;2022-09-09T01:42:06;37.52;35.27;40.28;;
69615;Laerm;56821;52.486;4.680;2022-09-09T01:42:17;38.23;36.14;40.95;;
69615;Laerm;56821;52.486;4.680;2022-09-09T01:42:28;36.27;34.42;38.17;;
69615;Laerm;56821;52.486;4.680;2022-09-09T01:42:39;36.13;33.64;38.51;;
69615;Laerm;56821;52.486;4.680;2022-09-09T01:42:49;35.92;33.93;38.31;;
69615;Laerm;56821;52.486;4.680;2022-09-09T01:42:59;35.94;34.20;37.95;;
69615;Laerm;56821;52.486;4.680;2022-09-09T01:43:10;37.43;35.24;40.23;;
69615;Laerm;56821;52.486;4.680;2022-09-09T01:43:20;41.00;36.59;48.60;;
69615;Laerm;56821;52.486;4.680;2022-09-09T01:43:31;45.88;38.85;58.33;;
69615;Laerm;56821;52.486;4.680;2022-09-09T01:43:41;44.98;39.17;52.45;;
69615;Laerm;56821;52.486;4.680;2022-09-09T01:43:52;46.00;38.22;58.91;;
69615;Laerm;56821;52.486;4.680;2022-09-09T01:44:03;44.10;37.41;51.64;;
69615;Laerm;56821;52.486;4.680;2022-09-09T01:44:13;42.77;37.38;49.89;;
69615;Laerm;56821;52.486;4.680;2022-09-09T01:44:24;41.13;36.77;48.74;;
69615;Laerm;56821;52.486;4.680;2022-09-09T01:44:35;39.04;35.84;44.92;;
69615;Laerm;56821;52.486;4.680;2022-09-09T01:44:46;37.93;35.34;41.89;;
69615;Laerm;56821;52.486;4.680;2022-09-09T01:44:56;38.52;36.07;42.50;;
69615;Laerm;56821;52.486;4.680;2022-09-09T01:45:07;37.56;35.30;39.87;;
69615;Laerm;56821;52.486;4.680;2022-09-09T01:45:17;37.28;34.87;40.38;;
69615;Laerm;56821;52.486;4.680;2022-09-09T01:45:28;36.41;34.47;38.48;;
69615;Laerm;56821;52.486;4.680;2022-09-09T01:45:39;35.90;33.86;41.13;;
69615;Laerm;56821;52.486;4.680;2022-09-09T01:45:52;35.65;33.82;37.30;;
69615;Laerm;56821;52.486;4.680;2022-09-09T01:46:04;35.63;34.09;37.38;;
69615;Laerm;56821;52.486;4.680;2022-09-09T01:46:14;35.56;34.06;37.24;;
69615;Laerm;56821;52.486;4.680;2022-09-09T01:46:26;36.34;34.06;38.43;;
69615;Laerm;56821;52.486;4.680;2022-09-09T01:46:37;36.46;34.07;38.64;;
69615;Laerm;56821;52.486;4.680;2022-09-09T01:46:48;36.28;34.67;38.57;;
69615;Laerm;56821;52.486;4.680;2022-09-09T01:46:58;36.92;35.07;39.83;;
69615;Laerm;56821;52.486;4.680;2022-09-09T01:47:08;36.73;34.99;38.52;;
69615;Laerm;56821;52.486;4.680;2022-09-09T01:47:19;36.60;33.91;39.13;;
69615;Laerm;56821;52.486;4.680;2022-09-09T01:47:29;36.98;34.96;39.28;;
69615;Laerm;56821;52.486;4.680;2022-09-09T01:47:39;36.59;34.21;41.27;;
69615;Laerm;56821;52.486;4.680;2022-09-09T01:47:50;38.76;35.61;40.83;;
69615;Laerm;56821;52.486;4.680;2022-09-09T01:48:02;38.31;35.89;41.06;;
69615;Laerm;56821;52.486;4.680;2022-09-09T01:48:13;36.56;34.11;38.83;;
69615;Laerm;56821;52.486;4.680;2022-09-09T01:48:23;36.33;34.33;38.85;;
69615;Laerm;56821;52.486;4.680;2022-09-09T01:48:33;35.57;33.68;37.54;;
69615;Laerm;56821;52.486;4.680;2022-09-09T01:48:44;35.83;34.04;37.70;;
69615;Laerm;56821;52.486;4.680;2022-09-09T01:48:55;35.87;34.19;37.79;;
69615;Laerm;56821;52.486;4.680;2022-09-09T01:49:06;36.53;34.51;38.46;;
69615;Laerm;56821;52.486;4.680;2022-09-09T01:49:17;36.73;34.72;38.44;;
69615;Laerm;56821;52.486;4.680;2022-09-09T01:49:27;36.85;34.62;38.54;;
69615;Laerm;56821;52.486;4.680;2022-09-09T01:49:37;36.36;34.12;38.33;;
69615;Laerm;56821;52.486;4.680;2022-09-09T01:49:48;37.77;34.92;40.35;;
69615;Laerm;56821;52.486;4.680;2022-09-09T01:49:58;38.00;35.27;41.59;;
69615;Laerm;56821;52.486;4.680;2022-09-09T01:50:10;40.49;36.70;42.80;;
69615;Laerm;56821;52.486;4.680;2022-09-09T01:50:22;37.92;35.69;41.07;;
69615;Laerm;56821;52.486;4.680;2022-09-09T01:50:33;38.87;35.56;40.62;;
69615;Laerm;56821;52.486;4.680;2022-09-09T01:50:43;36.94;34.68;38.96;;
69615;Laerm;56821;52.486;4.680;2022-09-09T01:50:53;37.53;35.51;40.24;;